Time;durP1;ratioP1;P1;durP2;ratioP2;P2;SDS_P1;SDS_P2;PMS_P1;PMS_P2;Temp;Humidity;BMP_temperature;BMP_pressure;BME280_temperature;BME280_humidity;BME280_pressure;Samples;Min_cycle;Max_cycle;Signal;HPM_P1;HPM_P2
2023/08/12 00:01:55;;;;;;;7.63;3.38;;;;;;;23.22;64.48;101701.25;5042494;28;20110;-62
2023/08/12 00:04:23;;;;;;;7.50;3.40;;;;;;;23.21;64.11;101709.75;5041925;28;20049;-63
2023/08/12 00:06:52;;;;;;;5.40;3.25;;;;;;;23.20;64.11;101708.94;5057300;28;20049;-63
2023/08/12 00:09:20;;;;;;;5.63;3.42;;;;;;;23.18;64.26;101702.94;5062009;28;20045;-62
2023/08/12 00:11:48;;;;;;;6.30;3.40;;;;;;;23.16;64.51;101699.66;5062232;28;20101;-62
2023/08/12 00:14:16;;;;;;;7.00;3.28;;;;;;;23.15;64.37;101700.75;5042054;28;20041;-63
2023/08/12 00:16:44;;;;;;;6.13;3.25;;;;;;;23.15;64.68;101703.50;5043011;28;20087;-63
2023/08/12 00:19:11;;;;;;;6.65;3.97;;;;;;;23.14;64.69;101695.56;5061952;28;20074;-63
2023/08/12 00:21:40;;;;;;;6.18;3.95;;;;;;;23.13;64.49;101692.00;5045935;28;20049;-63
2023/08/12 00:24:09;;;;;;;7.85;3.60;;;;;;;23.13;64.46;101692.00;5045618;28;20049;-62
2023/08/12 00:26:37;;;;;;;6.55;3.42;;;;;;;23.12;64.58;101682.13;5054575;28;20049;-62
2023/08/12 00:29:05;;;;;;;7.90;3.95;;;;;;;23.12;64.82;101684.03;5025839;28;20107;-62
2023/08/12 00:31:33;;;;;;;7.03;3.85;;;;;;;23.11;64.41;101687.91;5040078;28;20045;-62
2023/08/12 00:34:00;;;;;;;6.28;3.22;;;;;;;23.10;64.77;101687.06;5056858;28;20062;-62
2023/08/12 00:36:28;;;;;;;6.05;3.47;;;;;;;23.11;64.66;101674.19;5055981;27;20067;-63
2023/08/12 00:38:56;;;;;;;8.00;3.85;;;;;;;23.10;64.44;101675.28;5142876;27;20100;-63
2023/08/12 00:41:25;;;;;;;6.63;3.80;;;;;;;23.09;64.67;101668.97;5065669;28;20064;-63
2023/08/12 00:43:53;;;;;;;5.43;3.63;;;;;;;23.08;64.58;101664.59;5065338;28;20045;-63
2023/08/12 00:46:21;;;;;;;5.68;3.50;;;;;;;23.07;64.44;101664.88;5063910;28;20037;-63
2023/08/12 00:48:49;;;;;;;5.75;3.15;;;;;;;23.07;64.91;101662.97;5064867;28;20076;-62
2023/08/12 00:51:17;;;;;;;6.20;3.20;;;;;;;23.05;64.54;101666.00;5045431;28;20106;-62
2023/08/12 00:53:47;;;;;;;4.72;3.65;;;;;;;23.05;64.85;101668.75;5044531;28;20070;-62
2023/08/12 00:56:15;;;;;;;6.15;3.55;;;;;;;23.04;64.95;101661.63;5063537;28;20594;-63
2023/08/12 00:58:45;;;;;;;5.78;3.35;;;;;;;23.03;64.49;101661.91;5065222;28;20049;-62
2023/08/12 01:01:14;;;;;;;8.23;4.07;;;;;;;23.02;64.83;101654.78;5064895;28;20048;-63
2023/08/12 01:03:42;;;;;;;6.40;3.72;;;;;;;23.01;64.59;101658.63;5053312;28;20049;-63
2023/08/12 01:06:10;;;;;;;6.45;3.65;;;;;;;23.01;64.98;101650.41;5045225;28;20049;-62
2023/08/12 01:08:38;;;;;;;5.07;3.33;;;;;;;22.99;64.63;101647.13;5044822;28;20478;-63
2023/08/12 01:11:13;;;;;;;9.75;4.03;;;;;;;22.97;64.50;101647.41;5064156;28;20049;-63
2023/08/12 01:13:50;;;;;;;5.95;3.75;;;;;;;22.96;64.98;101651.25;5056754;28;20059;-63
2023/08/12 01:16:19;;;;;;;6.03;3.53;;;;;;;22.94;64.54;101642.50;5048998;28;20068;-63
2023/08/12 01:18:50;;;;;;;7.53;3.80;;;;;;;22.92;65.09;101638.41;5064117;28;20060;-63
2023/08/12 01:21:21;;;;;;;8.70;3.55;;;;;;;22.89;64.59;101636.22;5048336;28;20060;-63
2023/08/12 01:23:50;;;;;;;7.90;3.25;;;;;;;22.88;65.15;101629.94;5050871;27;20050;-63
2023/08/12 01:26:19;;;;;;;7.45;3.90;;;;;;;22.87;64.97;101627.47;5044520;28;20041;-63
2023/08/12 01:28:47;;;;;;;6.53;3.55;;;;;;;22.85;64.73;101625.03;5062430;28;20072;-63
2023/08/12 01:31:24;;;;;;;6.68;3.55;;;;;;;22.83;65.14;101621.75;5054162;28;20042;-63
2023/08/12 01:33:59;;;;;;;5.30;3.38;;;;;;;22.81;64.89;101617.66;5055854;28;20082;-63
2023/08/12 01:36:31;;;;;;;6.70;3.50;;;;;;;22.79;64.82;101612.44;5070700;27;20049;-63
2023/08/12 01:39:01;;;;;;;7.43;3.35;;;;;;;22.79;64.89;101611.59;5148942;27;20131;-63
2023/08/12 01:41:31;;;;;;;5.90;3.30;;;;;;;22.78;64.90;101610.78;5069083;27;20052;-63
2023/08/12 01:43:59;;;;;;;5.88;3.90;;;;;;;22.77;65.30;101613.81;5064547;28;20055;-61
2023/08/12 01:46:27;;;;;;;5.47;3.28;;;;;;;22.74;65.25;101615.19;5064413;28;20049;-62
2023/08/12 01:48:55;;;;;;;8.57;4.10;;;;;;;22.73;64.91;101610.81;5057877;28;20118;-62
2023/08/12 01:51:23;;;;;;;5.22;3.45;;;;;;;22.72;65.06;101596.31;5044430;28;20045;-62
2023/08/12 01:53:50;;;;;;;5.53;3.33;;;;;;;22.72;64.89;101603.69;5044133;28;20456;-62
2023/08/12 01:56:19;;;;;;;6.32;3.75;;;;;;;22.70;64.89;101600.44;5044372;28;20053;-62
2023/08/12 01:58:47;;;;;;;4.95;3.03;;;;;;;22.69;65.30;101604.28;5044167;28;20045;-62
2023/08/12 02:01:15;;;;;;;10.63;4.78;;;;;;;22.67;65.10;101604.56;5062362;28;20052;-62
2023/08/12 02:03:43;;;;;;;5.70;3.33;;;;;;;22.66;65.39;101610.31;5063899;28;20055;-62
2023/08/12 02:06:11;;;;;;;5.18;3.17;;;;;;;22.65;65.03;101595.81;5063961;28;20049;-61
2023/08/12 02:08:38;;;;;;;6.88;3.70;;;;;;;22.64;65.10;101599.66;5048614;28;20050;-63
2023/08/12 02:11:06;;;;;;;6.38;4.22;;;;;;;22.64;65.47;101596.09;5044045;28;20082;-63
2023/08/12 02:13:35;;;;;;;5.60;3.45;;;;;;;22.63;65.11;101598.00;5043784;28;20054;-63
2023/08/12 02:16:04;;;;;;;6.10;3.47;;;;;;;22.61;65.38;101591.19;5024154;28;20053;-63
2023/08/12 02:18:31;;;;;;;6.63;3.70;;;;;;;22.62;65.38;101590.88;5023708;28;20054;-62
2023/08/12 02:20:59;;;;;;;8.20;3.80;;;;;;;22.62;64.95;101584.59;5037591;28;20045;-63
2023/08/12 02:23:27;;;;;;;4.00;2.80;;;;;;;22.61;65.32;101588.44;5043242;28;20050;-62
2023/08/12 02:25:55;;;;;;;6.18;3.40;;;;;;;22.61;65.46;101577.47;5043847;28;20049;-62
2023/08/12 02:28:22;;;;;;;5.20;3.53;;;;;;;22.58;65.35;101576.13;5056321;28;20049;-63
2023/08/12 02:30:52;;;;;;;4.70;3.10;;;;;;;22.59;65.08;101577.75;5063618;28;20500;-62
2023/08/12 02:33:19;;;;;;;7.70;3.47;;;;;;;22.60;65.18;101575.84;5063586;28;20494;-62
2023/08/12 02:35:47;;;;;;;7.00;3.53;;;;;;;22.59;65.42;101575.00;5063236;28;20045;-63
2023/08/12 02:38:15;;;;;;;6.18;3.70;;;;;;;22.57;65.15;101569.00;5046496;28;20049;-62
2023/08/12 02:40:43;;;;;;;4.80;3.13;;;;;;;22.57;65.47;101570.94;5043460;28;20045;-63
2023/08/12 02:43:11;;;;;;;5.85;3.30;;;;;;;22.55;65.41;101563.00;5043388;28;20053;-62
2023/08/12 02:45:39;;;;;;;4.18;2.85;;;;;;;22.55;65.11;101563.00;5045693;28;20046;-63
2023/08/12 02:48:09;;;;;;;5.88;2.97;;;;;;;22.55;65.37;101564.91;5063416;28;20049;-62
2023/08/12 02:50:37;;;;;;;6.50;3.00;;;;;;;22.53;65.41;101556.19;5056392;28;20056;-62
2023/08/12 02:53:06;;;;;;;6.18;3.15;;;;;;;22.52;65.38;101547.16;5059000;28;20118;-62
2023/08/12 02:55:33;;;;;;;5.47;3.25;;;;;;;22.51;65.43;101548.25;5043204;28;20448;-63
2023/08/12 02:58:03;;;;;;;6.40;3.47;;;;;;;22.51;65.73;101545.53;5043301;28;20049;-62
2023/08/12 03:00:31;;;;;;;5.97;2.60;;;;;;;22.50;65.08;101545.81;5043135;28;20049;-62
2023/08/12 03:02:59;;;;;;;4.70;2.80;;;;;;;22.49;65.35;101541.44;5043135;28;20457;-63
2023/08/12 03:05:28;;;;;;;5.32;3.20;;;;;;;22.48;65.67;101535.13;5043020;28;20049;-62
2023/08/12 03:07:57;;;;;;;5.97;2.83;;;;;;;22.47;65.16;101544.44;5049507;28;20049;-62
2023/08/12 03:10:25;;;;;;;5.68;2.72;;;;;;;22.46;65.17;101542.00;5057356;28;20053;-62
2023/08/12 03:12:53;;;;;;;6.55;3.38;;;;;;;22.43;65.44;101532.44;5054108;28;20053;-62
2023/08/12 03:15:21;;;;;;;6.05;2.90;;;;;;;22.43;65.25;101526.13;5063024;28;20052;-62
2023/08/12 03:17:49;;;;;;;7.90;3.50;;;;;;;22.39;65.63;101532.19;5062719;28;20049;-63
2023/08/12 03:20:17;;;;;;;5.93;2.92;;;;;;;22.39;65.57;101532.19;5052759;28;20423;-63
2023/08/12 03:22:46;;;;;;;4.78;2.58;;;;;;;22.35;65.45;101536.59;5057471;28;20234;-62
2023/08/12 03:25:15;;;;;;;5.32;2.88;;;;;;;22.34;65.54;101534.94;5046939;28;20045;-62
2023/08/12 03:27:43;;;;;;;3.63;2.70;;;;;;;22.33;65.62;101532.50;5089561;27;20047;-63
2023/08/12 03:30:11;;;;;;;5.68;2.63;;;;;;;22.32;65.70;101523.47;5146845;27;20055;-62
2023/08/12 03:32:39;;;;;;;4.93;2.78;;;;;;;22.30;65.63;101513.88;5140685;27;20072;-62
2023/08/12 03:35:08;;;;;;;6.80;2.92;;;;;;;22.28;66.02;101508.69;5061025;28;20076;-62
2023/08/12 03:37:36;;;;;;;8.80;3.17;;;;;;;22.27;65.54;101501.59;5110518;27;20072;-63
2023/08/12 03:40:07;;;;;;;5.82;3.05;;;;;;;22.26;65.96;101499.94;5109687;27;20494;-63
2023/08/12 03:42:35;;;;;;;5.55;2.80;;;;;;;22.25;65.75;101501.03;5062819;28;20109;-63
2023/08/12 03:45:03;;;;;;;5.28;3.08;;;;;;;22.25;65.76;101502.97;5062426;28;20048;-63
2023/08/12 03:47:31;;;;;;;7.75;3.25;;;;;;;22.24;65.69;101506.81;5061025;28;20045;-63
2023/08/12 03:49:58;;;;;;;5.30;2.85;;;;;;;22.22;65.83;101506.28;5052955;28;20116;-63
2023/08/12 03:52:26;;;;;;;3.80;2.47;;;;;;;22.21;65.61;101496.41;5047398;28;20051;-63
2023/08/12 03:54:54;;;;;;;4.65;2.88;;;;;;;22.20;65.73;101495.59;5051224;28;20390;-63
2023/08/12 03:57:23;;;;;;;5.03;2.90;;;;;;;22.19;65.73;101493.16;5066161;28;20048;-63
2023/08/12 03:59:51;;;;;;;6.10;2.80;;;;;;;22.18;65.96;101486.84;5066163;28;20061;-63
2023/08/12 04:02:19;;;;;;;5.57;2.95;;;;;;;22.18;65.79;101486.84;5056803;28;20097;-63
2023/08/12 04:04:47;;;;;;;5.88;2.80;;;;;;;22.17;66.03;101484.41;5045816;28;20072;-63
2023/08/12 04:07:14;;;;;;;5.07;2.67;;;;;;;22.16;66.11;101483.59;5045752;28;20094;-63
2023/08/12 04:09:42;;;;;;;5.10;2.95;;;;;;;22.14;65.99;101477.56;5048456;28;20053;-63
2023/08/12 04:12:10;;;;;;;4.82;2.60;;;;;;;22.14;65.97;101471.28;5045908;28;20053;-61
2023/08/12 04:14:40;;;;;;;5.25;2.80;;;;;;;22.12;65.94;101468.81;5045909;28;20054;-62
2023/08/12 04:17:08;;;;;;;10.15;3.22;;;;;;;22.10;65.83;101471.03;5045282;28;20682;-63
2023/08/12 04:19:37;;;;;;;4.32;2.50;;;;;;;22.11;65.90;101474.59;5044999;28;20081;-64
2023/08/12 04:22:04;;;;;;;4.35;2.92;;;;;;;22.11;66.04;101474.59;5045662;28;20049;-63
2023/08/12 04:24:32;;;;;;;6.55;2.90;;;;;;;22.10;65.85;101473.75;5051888;27;20052;-63
2023/08/12 04:27:00;;;;;;;4.30;2.70;;;;;;;22.09;65.88;101466.66;5067751;27;20441;-63
2023/08/12 04:29:28;;;;;;;6.07;3.17;;;;;;;22.08;65.80;101465.84;5150358;27;20043;-63
2023/08/12 04:31:57;;;;;;;6.00;2.92;;;;;;;22.07;65.97;101482.53;5105186;27;20413;-63
2023/08/12 04:34:25;;;;;;;5.57;2.70;;;;;;;22.07;65.94;101491.56;5065253;28;20056;-63
2023/08/12 04:36:52;;;;;;;5.30;2.92;;;;;;;22.06;65.82;101492.69;5060270;28;20041;-62
2023/08/12 04:39:21;;;;;;;6.05;2.42;;;;;;;22.05;65.88;101485.56;5045341;28;20045;-62
2023/08/12 04:41:49;;;;;;;7.13;3.55;;;;;;;22.05;66.30;101471.88;5045631;28;20046;-62
2023/08/12 04:44:17;;;;;;;5.97;3.15;;;;;;;22.05;66.23;101471.06;5045469;28;20053;-62
2023/08/12 04:46:45;;;;;;;6.60;2.90;;;;;;;22.04;66.36;101477.63;5045352;28;20057;-62
2023/08/12 04:49:14;;;;;;;6.07;2.90;;;;;;;22.03;66.29;101471.34;5044794;28;20046;-61
2023/08/12 04:51:42;;;;;;;6.57;2.95;;;;;;;22.03;66.36;101476.81;5045405;28;20053;-62
2023/08/12 04:54:10;;;;;;;4.75;2.70;;;;;;;22.02;66.40;101472.44;5045354;28;20070;-62
2023/08/12 04:56:37;;;;;;;5.50;2.90;;;;;;;22.01;66.49;101472.69;5065346;28;20044;-62
2023/08/12 04:59:05;;;;;;;7.70;3.33;;;;;;;22.00;66.30;101471.88;5065127;28;20048;-62
2023/08/12 05:01:33;;;;;;;5.85;3.00;;;;;;;22.00;66.41;101460.94;5063908;28;20061;-62
2023/08/12 05:04:01;;;;;;;5.47;3.08;;;;;;;21.98;66.45;101452.19;5064753;28;20068;-62
2023/08/12 05:06:30;;;;;;;7.25;2.75;;;;;;;21.97;66.68;101449.72;5065083;28;20105;-62
2023/08/12 05:08:57;;;;;;;5.85;2.85;;;;;;;21.95;66.38;101430.84;5054207;28;20113;-62
2023/08/12 05:11:25;;;;;;;5.47;2.63;;;;;;;21.95;66.16;101421.81;5059731;28;20554;-61
2023/08/12 05:13:53;;;;;;;5.25;2.90;;;;;;;21.93;66.41;101424.84;5046134;28;20053;-61
2023/08/12 05:16:21;;;;;;;7.15;3.05;;;;;;;21.92;66.53;101423.22;5043978;28;20045;-61
2023/08/12 05:18:49;;;;;;;5.40;2.83;;;;;;;21.91;66.66;101431.69;5044256;28;20065;-62
2023/08/12 05:21:16;;;;;;;4.45;2.67;;;;;;;21.90;66.54;101441.00;5044005;28;20049;-60
2023/08/12 05:23:45;;;;;;;5.47;3.00;;;;;;;21.90;66.65;101451.97;5049705;27;20049;-61
2023/08/12 05:26:13;;;;;;;5.90;3.10;;;;;;;21.87;66.69;101430.63;5043900;28;20050;-61
2023/08/12 05:28:41;;;;;;;4.75;3.00;;;;;;;21.87;66.64;101422.44;5133342;27;20047;-61
2023/08/12 05:31:09;;;;;;;5.32;3.03;;;;;;;21.85;66.75;101441.03;5148905;27;20108;-61
2023/08/12 05:33:37;;;;;;;4.78;3.00;;;;;;;21.83;66.96;101438.59;5071064;27;20074;-60
2023/08/12 05:36:05;;;;;;;5.75;3.13;;;;;;;21.82;66.68;101430.66;5063197;28;20061;-61
2023/08/12 05:38:33;;;;;;;4.45;2.88;;;;;;;21.82;66.91;101430.66;5143757;27;20058;-61
2023/08/12 05:41:03;;;;;;;4.93;3.00;;;;;;;21.81;66.95;101429.03;5142215;27;20077;-61
2023/08/12 05:43:31;;;;;;;4.43;2.40;;;;;;;21.77;66.83;101418.66;5064604;28;20045;-62
2023/08/12 05:45:59;;;;;;;5.72;2.55;;;;;;;21.79;67.21;101428.50;5052995;28;20049;-62
2023/08/12 05:48:27;;;;;;;6.05;3.05;;;;;;;21.76;67.24;101422.47;5044207;28;20042;-62
2023/08/12 05:50:55;;;;;;;6.45;2.85;;;;;;;21.77;67.21;101406.88;5048150;28;20045;-62
2023/08/12 05:53:23;;;;;;;5.10;3.00;;;;;;;21.75;67.07;101417.28;5057648;28;20050;-62
2023/08/12 05:55:50;;;;;;;6.13;2.58;;;;;;;21.73;67.20;101417.56;5044444;28;20049;-62
2023/08/12 05:58:20;;;;;;;6.55;2.35;;;;;;;21.74;67.28;101415.66;5044134;28;20045;-61
2023/08/12 06:00:48;;;;;;;5.45;2.38;;;;;;;21.72;67.31;101417.84;5044088;28;20054;-62
2023/08/12 06:03:15;;;;;;;4.03;2.47;;;;;;;21.70;67.16;101418.16;5044358;28;20460;-62
2023/08/12 06:05:46;;;;;;;2.97;2.15;;;;;;;21.69;67.22;101419.25;5051354;28;20091;-62
2023/08/12 06:08:14;;;;;;;3.75;2.33;;;;;;;21.70;67.22;101411.84;5043940;28;20078;-62
2023/08/12 06:10:42;;;;;;;4.93;2.30;;;;;;;21.66;67.33;101408.03;5044009;28;20082;-62
2023/08/12 06:13:10;;;;;;;3.22;2.20;;;;;;;21.68;67.37;101414.06;5054282;28;20061;-62
2023/08/12 06:15:39;;;;;;;3.75;2.25;;;;;;;21.67;67.30;101406.94;5064054;28;20053;-62
2023/08/12 06:18:07;;;;;;;5.55;2.47;;;;;;;21.65;67.14;101400.94;5062883;28;20084;-61
2023/08/12 06:20:35;;;;;;;4.05;2.20;;;;;;;21.66;67.44;101405.31;5052824;28;20053;-62
2023/08/12 06:23:02;;;;;;;4.15;2.50;;;;;;;21.64;67.22;101396.56;5044310;28;20448;-62
2023/08/12 06:25:30;;;;;;;2.97;2.20;;;;;;;21.63;67.18;101392.19;5043668;28;20076;-62
2023/08/12 06:27:58;;;;;;;3.15;2.25;;;;;;;21.63;67.25;101394.94;5101436;27;20043;-62
2023/08/12 06:30:26;;;;;;;3.38;2.00;;;;;;;21.62;67.21;101390.56;5095222;27;20086;-61
2023/08/12 06:32:55;;;;;;;2.85;2.03;;;;;;;21.61;67.15;101381.53;5063396;28;20070;-62
2023/08/12 06:35:23;;;;;;;2.45;1.85;;;;;;;21.62;67.34;101385.09;5063177;28;20044;-62
2023/08/12 06:37:51;;;;;;;3.25;1.90;;;;;;;21.62;67.25;101385.09;5118403;27;20076;-61
2023/08/12 06:40:19;;;;;;;3.72;2.00;;;;;;;21.60;67.31;101385.38;5135155;27;20054;-61
2023/08/12 06:42:47;;;;;;;4.93;2.47;;;;;;;21.59;67.17;101378.25;5063475;28;20109;-61
2023/08/12 06:45:14;;;;;;;4.03;1.77;;;;;;;21.61;67.36;101383.44;5063252;28;20048;-61
2023/08/12 06:47:42;;;;;;;3.63;1.70;;;;;;;21.60;67.28;101377.16;5049633;28;20049;-62
2023/08/12 06:50:11;;;;;;;3.60;2.00;;;;;;;21.59;67.14;101381.00;5042928;28;20409;-62
2023/08/12 06:52:39;;;;;;;2.60;1.88;;;;;;;21.59;67.19;101378.25;5043202;28;20053;-61
2023/08/12 06:55:07;;;;;;;2.72;1.83;;;;;;;21.59;67.17;101374.72;5051597;28;20045;-61
2023/08/12 06:57:35;;;;;;;3.20;2.30;;;;;;;21.58;67.31;101373.06;5063319;28;20082;-62
2023/08/12 07:00:05;;;;;;;3.72;2.13;;;;;;;21.57;67.04;101369.53;5062948;28;20066;-61
2023/08/12 07:02:32;;;;;;;2.80;1.60;;;;;;;21.57;67.01;101368.69;5063231;28;20057;-61
2023/08/12 07:05:00;;;;;;;1.50;1.40;;;;;;;21.57;67.19;101366.78;5049341;28;20049;-61
2023/08/12 07:07:29;;;;;;;2.22;1.90;;;;;;;21.56;67.30;101364.34;5028767;28;20050;-61
2023/08/12 07:09:57;;;;;;;3.95;2.30;;;;;;;21.56;67.23;101361.59;5050956;28;20556;-61
2023/08/12 07:12:25;;;;;;;2.22;1.80;;;;;;;21.56;67.38;101367.06;5063093;28;20045;-61
2023/08/12 07:14:53;;;;;;;3.42;1.98;;;;;;;21.54;67.35;101367.34;5058670;28;20048;-62
2023/08/12 07:17:21;;;;;;;3.08;1.90;;;;;;;21.56;67.42;101369.81;5043064;28;20053;-62
2023/08/12 07:19:49;;;;;;;2.58;1.63;;;;;;;21.53;67.59;101371.19;5042135;28;20056;-62
2023/08/12 07:22:19;;;;;;;4.00;1.80;;;;;;;21.53;67.78;101365.72;5042959;28;20049;-62
2023/08/12 07:24:48;;;;;;;2.33;1.77;;;;;;;21.53;67.68;101371.19;5042999;28;20065;-62
2023/08/12 07:27:16;;;;;;;2.83;2.13;;;;;;;21.53;67.88;101365.72;5070008;27;20050;-62
2023/08/12 07:29:43;;;;;;;2.30;1.63;;;;;;;21.52;67.85;101371.47;5145893;27;20050;-60
2023/08/12 07:32:12;;;;;;;2.58;1.80;;;;;;;21.51;67.79;101367.91;5147152;27;20112;-61
2023/08/12 07:34:40;;;;;;;2.72;1.75;;;;;;;21.51;68.27;101373.38;5066032;28;20056;-62
2023/08/12 07:37:08;;;;;;;2.25;1.45;;;;;;;21.50;68.04;101374.47;5094109;27;20047;-62
2023/08/12 07:39:36;;;;;;;2.63;1.70;;;;;;;21.51;68.41;101364.38;5146548;27;20476;-61
2023/08/12 07:42:05;;;;;;;2.28;1.80;;;;;;;21.48;68.36;101363.00;5138643;27;20072;-61
2023/08/12 07:44:33;;;;;;;3.00;1.80;;;;;;;21.48;68.39;101373.94;5062660;28;20086;-62
2023/08/12 07:47:01;;;;;;;2.72;1.90;;;;;;;21.49;68.46;101372.84;5062596;28;20053;-62
2023/08/12 07:49:28;;;;;;;2.80;1.92;;;;;;;21.47;67.96;101371.50;5057087;28;20466;-62
2023/08/12 07:51:56;;;;;;;1.67;1.45;;;;;;;21.48;68.52;101359.47;5051015;28;20049;-62
2023/08/12 07:54:24;;;;;;;2.65;1.90;;;;;;;21.48;68.56;101359.47;5049604;28;20044;-62
2023/08/12 07:56:53;;;;;;;2.25;1.60;;;;;;;21.48;68.72;101362.19;5062458;28;20097;-62
2023/08/12 07:59:22;;;;;;;2.75;1.50;;;;;;;21.47;68.65;101364.09;5062423;28;20071;-62
2023/08/12 08:01:50;;;;;;;1.65;1.55;;;;;;;21.46;68.75;101370.69;5049512;28;20078;-62
2023/08/12 08:04:18;;;;;;;2.35;1.55;;;;;;;21.46;68.88;101373.41;5042090;28;20053;-62
2023/08/12 08:06:45;;;;;;;1.98;1.70;;;;;;;21.45;68.88;101371.78;5042350;28;20054;-62
2023/08/12 08:09:17;;;;;;;1.33;1.20;;;;;;;21.46;69.09;101375.34;5042466;28;20057;-62
2023/08/12 08:11:44;;;;;;;2.03;1.50;;;;;;;21.46;69.21;101375.34;5053220;28;20061;-61
2023/08/12 08:14:12;;;;;;;2.50;1.45;;;;;;;21.46;69.47;101384.34;5062333;28;20049;-61
2023/08/12 08:16:42;;;;;;;2.10;1.23;;;;;;;21.44;69.88;101384.63;5062177;28;20053;-61
2023/08/12 08:19:10;;;;;;;2.45;1.77;;;;;;;21.46;69.93;101386.28;5048723;28;20113;-61
2023/08/12 08:21:40;;;;;;;3.25;1.52;;;;;;;21.44;70.62;101386.56;5042204;28;20055;-61
2023/08/12 08:24:11;;;;;;;1.73;1.38;;;;;;;21.43;70.52;101387.66;5042026;28;20053;-60
2023/08/12 08:26:39;;;;;;;2.42;1.42;;;;;;;21.44;70.91;101386.56;5041915;28;20054;-61
2023/08/12 08:29:08;;;;;;;4.50;1.77;;;;;;;21.44;70.81;101383.81;5061437;28;20073;-61
2023/08/12 08:31:36;;;;;;;1.70;1.13;;;;;;;21.44;71.03;101392.03;5061944;28;20056;-61
2023/08/12 08:34:05;;;;;;;1.45;1.17;;;;;;;21.41;71.17;101390.66;5053976;28;20041;-60
2023/08/12 08:36:33;;;;;;;1.70;1.30;;;;;;;21.44;71.46;101392.84;5056357;28;20098;-60
2023/08/12 08:39:01;;;;;;;2.72;1.40;;;;;;;21.44;71.18;101394.75;5146383;28;20047;-61
2023/08/12 08:41:32;;;;;;;3.38;1.50;;;;;;;21.44;70.79;101392.84;5097877;27;20474;-62
2023/08/12 08:44:03;;;;;;;1.70;1.30;;;;;;;21.44;70.90;101395.56;5062184;28;20063;-61
2023/08/12 08:46:31;;;;;;;2.47;1.33;;;;;;;21.46;70.73;101405.41;5045435;28;20113;-61
2023/08/12 08:49:01;;;;;;;2.22;1.40;;;;;;;21.44;70.98;101411.16;5045139;28;20049;-61
2023/08/12 08:51:31;;;;;;;1.55;1.30;;;;;;;21.47;70.91;101412.53;5045092;28;20053;-61
2023/08/12 08:53:59;;;;;;;3.00;1.10;;;;;;;21.48;70.91;101419.63;5033902;28;20510;-61
2023/08/12 08:56:31;;;;;;;2.88;1.65;;;;;;;21.49;70.68;101413.88;5025619;28;20049;-61
2023/08/12 08:58:59;;;;;;;2.30;1.70;;;;;;;21.49;70.70;101402.94;5044333;28;20109;-61
2023/08/12 09:01:29;;;;;;;2.08;1.50;;;;;;;21.49;70.96;101399.38;5048602;28;20041;-62
2023/08/12 09:03:58;;;;;;;1.60;1.48;;;;;;;21.49;70.72;101413.06;5064914;28;20132;-61
2023/08/12 09:06:27;;;;;;;1.73;1.50;;;;;;;21.50;70.72;101414.69;5052764;28;20053;-61
2023/08/12 09:08:57;;;;;;;1.60;1.50;;;;;;;21.49;70.47;101413.06;5061016;28;20580;-61
2023/08/12 09:11:25;;;;;;;1.75;1.35;;;;;;;21.51;70.76;101419.06;5064988;28;20049;-61
2023/08/12 09:13:54;;;;;;;2.13;1.70;;;;;;;21.50;71.21;101423.72;5065231;28;20116;-61
2023/08/12 09:16:22;;;;;;;2.10;1.65;;;;;;;21.51;71.19;101432.75;5045994;28;20049;-61
2023/08/12 09:18:55;;;;;;;1.83;1.70;;;;;;;21.50;71.70;101426.44;5044429;28;20061;-61
2023/08/12 09:21:24;;;;;;;2.15;1.67;;;;;;;21.50;71.53;101431.91;5044438;28;20185;-62
2023/08/12 09:23:51;;;;;;;2.42;2.00;;;;;;;21.50;71.55;101442.03;5044788;28;20050;-61
2023/08/12 09:26:22;;;;;;;3.20;1.80;;;;;;;21.50;71.20;101433.84;5044589;28;20053;-62
2023/08/12 09:28:50;;;;;;;2.17;1.70;;;;;;;21.50;71.39;101437.41;5053895;27;20086;-61
2023/08/12 09:31:25;;;;;;;2.35;2.00;;;;;;;21.51;72.00;101444.50;5044380;28;20515;-61
2023/08/12 09:33:54;;;;;;;1.77;1.67;;;;;;;21.49;72.14;101443.97;5058480;28;20055;-61
2023/08/12 09:36:23;;;;;;;1.92;1.55;;;;;;;21.50;72.25;101442.88;5063592;28;20049;-61
2023/08/12 09:38:52;;;;;;;1.88;1.42;;;;;;;21.49;71.61;101430.28;5064481;28;20053;-61
2023/08/12 09:41:23;;;;;;;2.53;1.60;;;;;;;21.50;71.36;101431.91;5064306;28;20045;-61
2023/08/12 09:43:52;;;;;;;1.98;1.55;;;;;;;21.50;71.62;101442.03;5063254;28;20049;-62
2023/08/12 09:46:23;;;;;;;2.53;1.63;;;;;;;21.51;71.58;101439.03;5064329;28;20045;-61
2023/08/12 09:48:52;;;;;;;1.42;1.30;;;;;;;21.52;71.46;101434.38;5064471;28;20045;-61
2023/08/12 09:51:21;;;;;;;1.83;1.15;;;;;;;21.54;71.53;101440.38;5037880;28;20073;-61
2023/08/12 09:53:49;;;;;;;2.00;1.40;;;;;;;21.53;71.77;101436.00;5053461;28;20065;-61
2023/08/12 09:56:23;;;;;;;2.00;1.15;;;;;;;21.54;72.07;101448.59;5043851;28;20049;-61
2023/08/12 09:58:51;;;;;;;1.55;1.42;;;;;;;21.54;71.84;101449.41;5024587;28;20117;-61
2023/08/12 10:01:21;;;;;;;3.45;1.35;;;;;;;21.54;72.01;101454.06;5024341;28;20456;-62
2023/08/12 10:03:51;;;;;;;1.48;1.10;;;;;;;21.53;71.76;101446.97;5057035;28;20045;-62
2023/08/12 10:06:19;;;;;;;2.13;1.25;;;;;;;21.54;71.71;101443.13;5049377;28;20049;-62
2023/08/12 10:08:47;;;;;;;1.40;1.15;;;;;;;21.53;71.68;101450.50;5063912;28;20482;-62
2023/08/12 10:11:16;;;;;;;1.00;0.90;;;;;;;21.55;71.73;101452.97;5063726;28;20052;-62
2023/08/12 10:13:46;;;;;;;1.45;0.88;;;;;;;21.57;71.53;101450.75;5064137;28;20056;-62
2023/08/12 10:16:14;;;;;;;1.45;1.10;;;;;;;21.52;71.74;101451.59;5062382;28;20097;-62
2023/08/12 10:18:43;;;;;;;1.48;1.15;;;;;;;21.53;71.65;101457.91;5063393;28;20056;-62
2023/08/12 10:21:13;;;;;;;2.50;1.50;;;;;;;21.53;71.59;101458.72;5047789;28;20172;-62
2023/08/12 10:23:42;;;;;;;1.42;1.13;;;;;;;21.53;71.61;101469.66;5044324;28;20049;-62
2023/08/12 10:26:16;;;;;;;2.08;1.10;;;;;;;21.53;71.35;101461.44;5043733;28;20055;-61
2023/08/12 10:28:45;;;;;;;2.03;1.10;;;;;;;21.54;71.17;101465.00;5134195;27;20054;-62
2023/08/12 10:31:13;;;;;;;1.08;0.70;;;;;;;21.56;71.51;101460.06;5110658;27;20041;-62
2023/08/12 10:33:42;;;;;;;1.50;1.00;;;;;;;21.55;71.41;101453.78;5063680;28;20049;-61
2023/08/12 10:36:10;;;;;;;1.05;0.90;;;;;;;21.56;71.39;101457.34;5063336;28;20098;-61
2023/08/12 10:38:38;;;;;;;3.35;1.10;;;;;;;21.56;71.37;101454.59;5046013;28;20041;-61
2023/08/12 10:41:17;;;;;;;1.85;0.90;;;;;;;21.57;70.87;101453.50;5063247;28;20049;-61
2023/08/12 10:43:57;;;;;;;1.17;1.00;;;;;;;21.57;71.17;101453.50;5062038;28;20057;-61
2023/08/12 10:46:30;;;;;;;3.03;1.23;;;;;;;21.56;71.14;101457.34;5063485;28;20049;-61
2023/08/12 10:49:01;;;;;;;2.78;1.40;;;;;;;21.56;70.70;101458.16;5054980;28;20049;-62
2023/08/12 10:51:40;;;;;;;2.90;1.60;;;;;;;21.55;70.70;101461.16;5043006;28;20574;-62
2023/08/12 10:54:16;;;;;;;1.83;1.15;;;;;;;21.56;70.64;101463.63;5043525;28;20094;-62
2023/08/12 10:57:11;;;;;;;3.55;1.20;;;;;;;21.55;70.45;101462.00;5063447;28;20085;-62
2023/08/12 10:59:54;;;;;;;2.58;1.27;;;;;;;21.56;70.69;101466.34;5044758;28;20080;-61
2023/08/12 11:02:27;;;;;;;4.28;1.38;;;;;;;21.57;70.21;101469.91;5042798;28;20344;-61
2023/08/12 11:04:57;;;;;;;1.98;1.20;;;;;;;21.57;70.38;101465.25;5022979;28;20065;-61
2023/08/12 11:07:34;;;;;;;1.38;0.95;;;;;;;21.58;70.36;101466.91;5023692;28;20050;-61
2023/08/12 11:10:11;;;;;;;3.78;1.40;;;;;;;21.58;70.39;101466.09;5023237;28;20114;-61
2023/08/12 11:12:40;;;;;;;4.93;1.27;;;;;;;21.57;70.08;101465.25;5055342;28;20070;-62
2023/08/12 11:15:11;;;;;;;2.30;1.00;;;;;;;21.56;69.91;101457.34;5063109;28;20112;-61
2023/08/12 11:17:40;;;;;;;2.58;1.38;;;;;;;21.57;69.84;101454.31;5061205;28;20078;-62
2023/08/12 11:20:10;;;;;;;2.97;1.27;;;;;;;21.57;69.49;101459.78;5055488;28;20056;-61
2023/08/12 11:22:40;;;;;;;3.63;1.23;;;;;;;21.55;69.07;101456.53;5042881;28;20128;-62
2023/08/12 11:25:09;;;;;;;4.25;1.55;;;;;;;21.54;68.27;101467.75;5023306;28;20079;-61
2023/08/12 11:27:41;;;;;;;3.83;1.50;;;;;;;21.54;68.06;101468.56;5054881;28;20056;-61
2023/08/12 11:30:15;;;;;;;4.95;1.75;;;;;;;21.54;67.60;101462.25;5062698;28;20049;-61
2023/08/12 11:32:43;;;;;;;7.57;2.15;;;;;;;21.54;66.86;101467.75;5071151;27;20067;-61